<?xml version="1.0" encoding="utf-8"?>
<gpx xmlns:xsi="http://www.w3.org/2001/XMLSchema-instance" xmlns:xsd="http://www.w3.org/2001/XMLSchema" version="1.1" creator="Shapelink.com" xmlns="http://www.topografix.com/GPX/1/1" xmlns:gpxtpx="http://www.garmin.com/xmlschemas/TrackPointExtension/v1">
  <metadata>
    <name>Övrigt 1.90 km, 2019-05-12</name>
    <desc></desc>
    <author><name>Marian Moron</name></author> 
    <time>2019-05-12T22:56:59Z</time>
  </metadata>
  <trk>
    <name>Övrigt 1.90 km, 2019-05-12</name>
    <trkseg>
      <trkpt lat="51.229894856196" lon="4.457841095384">
        <ele>0</ele>
        <time>2019-05-12T22:56:59Z</time>
      </trkpt>
      <trkpt lat="51.229857053827" lon="4.457385120024">
        <ele>0</ele>
        <time>2019-05-12T22:57:29Z</time>
      </trkpt>
      <trkpt lat="51.229743981996" lon="4.456963594273">
        <ele>0</ele>
        <time>2019-05-12T22:58:03Z</time>
      </trkpt>
      <trkpt lat="51.229725709454" lon="4.456966192662">
        <ele>0</ele>
        <time>2019-05-12T22:58:05Z</time>
      </trkpt>
      <trkpt lat="51.229424212511" lon="4.456884385318">
        <ele>0</ele>
        <time>2019-05-12T22:58:46Z</time>
      </trkpt>
      <trkpt lat="51.229180634497" lon="4.456945321731">
        <ele>0</ele>
        <time>2019-05-12T22:59:28Z</time>
      </trkpt>
      <trkpt lat="51.229070077236" lon="4.456932413605">
        <ele>0</ele>
        <time>2019-05-12T22:59:36Z</time>
      </trkpt>
      <trkpt lat="51.228742764041" lon="4.457119329975">
        <ele>0</ele>
        <time>2019-05-12T23:00:05Z</time>
      </trkpt>
      <trkpt lat="51.228673697185" lon="4.457014891501">
        <ele>0</ele>
        <time>2019-05-12T23:00:17Z</time>
      </trkpt>
      <trkpt lat="51.228717953617" lon="4.456913051416">
        <ele>0</ele>
        <time>2019-05-12T23:00:23Z</time>
      </trkpt>
      <trkpt lat="51.228797414029" lon="4.456896958168">
        <ele>0.2</ele>
        <time>2019-05-12T23:00:29Z</time>
      </trkpt>
      <trkpt lat="51.229258418529" lon="4.456920762764">
        <ele>5.2</ele>
        <time>2019-05-12T23:00:53Z</time>
      </trkpt>
      <trkpt lat="51.229379201708" lon="4.456864436396">
        <ele>6.8</ele>
        <time>2019-05-12T23:01:05Z</time>
      </trkpt>
      <trkpt lat="51.229722943427" lon="4.456783383423">
        <ele>4.6</ele>
        <time>2019-05-12T23:01:41Z</time>
      </trkpt>
      <trkpt lat="51.230178332054" lon="4.456632090128">
        <ele>5.8</ele>
        <time>2019-05-12T23:02:15Z</time>
      </trkpt>
      <trkpt lat="51.230627266618" lon="4.456543493445">
        <ele>13.4</ele>
        <time>2019-05-12T23:02:48Z</time>
      </trkpt>
      <trkpt lat="51.230660039847" lon="4.456485658335">
        <ele>11.8</ele>
        <time>2019-05-12T23:02:52Z</time>
      </trkpt>
      <trkpt lat="51.230914011417" lon="4.456186256867">
        <ele>3</ele>
        <time>2019-05-12T23:03:24Z</time>
      </trkpt>
      <trkpt lat="51.230991041078" lon="4.456129762861">
        <ele>0.4</ele>
        <time>2019-05-12T23:03:35Z</time>
      </trkpt>
      <trkpt lat="51.2311199547" lon="4.456277200482">
        <ele>7.2</ele>
        <time>2019-05-12T23:03:54Z</time>
      </trkpt>
      <trkpt lat="51.231204276614" lon="4.456355487428">
        <ele>5.2</ele>
        <time>2019-05-12T23:04:11Z</time>
      </trkpt>
      <trkpt lat="51.231247024304" lon="4.456395720548">
        <ele>4.2</ele>
        <time>2019-05-12T23:04:16Z</time>
      </trkpt>
      <trkpt lat="51.231268649606" lon="4.456506277809">
        <ele>3.8</ele>
        <time>2019-05-12T23:04:22Z</time>
      </trkpt>
      <trkpt lat="51.231283988483" lon="4.456639382381">
        <ele>2.6</ele>
        <time>2019-05-12T23:04:37Z</time>
      </trkpt>
      <trkpt lat="51.231212742333" lon="4.457322926326">
        <ele>0</ele>
        <time>2019-05-12T23:05:33Z</time>
      </trkpt>
      <trkpt lat="51.23123478673" lon="4.457692903392">
        <ele>2</ele>
        <time>2019-05-12T23:06:08Z</time>
      </trkpt>
      <trkpt lat="51.231347271828" lon="4.458360857003">
        <ele>5.4</ele>
        <time>2019-05-12T23:06:55Z</time>
      </trkpt>
      <trkpt lat="51.23146445079" lon="4.458332861457">
        <ele>2.2</ele>
        <time>2019-05-12T23:07:22Z</time>
      </trkpt>
      <trkpt lat="51.231554472396" lon="4.458393462594">
        <ele>3.4</ele>
        <time>2019-05-12T23:07:34Z</time>
      </trkpt>
      <trkpt lat="51.2316061049" lon="4.4585924489">
        <ele>0</ele>
        <time>2019-05-12T23:07:45Z</time>
      </trkpt>
      <trkpt lat="51.2316731601" lon="4.458903082114">
        <ele>0</ele>
        <time>2019-05-12T23:08:06Z</time>
      </trkpt>
      <trkpt lat="51.231744154793" lon="4.459349166832">
        <ele>0</ele>
        <time>2019-05-12T23:08:34Z</time>
      </trkpt>
      <trkpt lat="51.231639129586" lon="4.45963431907">
        <ele>0.6</ele>
        <time>2019-05-12T23:08:51Z</time>
      </trkpt>
      <trkpt lat="51.231502504616" lon="4.45960498242">
        <ele>0</ele>
        <time>2019-05-12T23:09:14Z</time>
      </trkpt>
      <trkpt lat="51.231096988294" lon="4.459648652119">
        <ele>0.2</ele>
        <time>2019-05-12T23:10:18Z</time>
      </trkpt>
      <trkpt lat="51.231090031317" lon="4.459643120065">
        <ele>0.4</ele>
        <time>2019-05-12T23:10:19Z</time>
      </trkpt>
      <trkpt lat="51.230978132952" lon="4.459668098127">
        <ele>1.8</ele>
        <time>2019-05-12T23:10:35Z</time>
      </trkpt>
      <trkpt lat="51.230894649228" lon="4.459704643211">
        <ele>3.2</ele>
        <time>2019-05-12T23:10:44Z</time>
      </trkpt>
      <trkpt lat="51.230620644917" lon="4.459854846859">
        <ele>2.4</ele>
        <time>2019-05-12T23:11:14Z</time>
      </trkpt>
      <trkpt lat="51.230600947452" lon="4.460269918547">
        <ele>0.8</ele>
        <time>2019-05-12T23:11:57Z</time>
      </trkpt>
      <trkpt lat="51.230630284102" lon="4.46068708571">
        <ele>6.8</ele>
        <time>2019-05-12T23:12:35Z</time>
      </trkpt>
      <trkpt lat="51.230537664107" lon="4.46072061331">
        <ele>5</ele>
        <time>2019-05-12T23:12:50Z</time>
      </trkpt>
      <trkpt lat="51.230478487893" lon="4.460730503952">
        <ele>5</ele>
        <time>2019-05-12T23:12:59Z</time>
      </trkpt>
      <trkpt lat="51.230355190144" lon="4.460760427335">
        <ele>6.2</ele>
        <time>2019-05-12T23:13:17Z</time>
      </trkpt>
      <trkpt lat="51.23031948325" lon="4.460775011841">
        <ele>6.2</ele>
        <time>2019-05-12T23:13:20Z</time>
      </trkpt>
      <trkpt lat="51.230224683961" lon="4.46079605041">
        <ele>7.8</ele>
        <time>2019-05-12T23:13:33Z</time>
      </trkpt>
      <trkpt lat="51.229964258328" lon="4.46087567846">
        <ele>6</ele>
        <time>2019-05-12T23:13:54Z</time>
      </trkpt>
      <trkpt lat="51.229925114855" lon="4.460882719256">
        <ele>5.4</ele>
        <time>2019-05-12T23:13:59Z</time>
      </trkpt>
      <trkpt lat="51.229482382897" lon="4.460905937119">
        <ele>4.2</ele>
        <time>2019-05-12T23:14:39Z</time>
      </trkpt>
      <trkpt lat="51.229382554468" lon="4.461050776351">
        <ele>3.2</ele>
        <time>2019-05-12T23:14:54Z</time>
      </trkpt>
      <trkpt lat="51.229223046911" lon="4.46122352731">
        <ele>1.4</ele>
        <time>2019-05-12T23:15:21Z</time>
      </trkpt>
      <trkpt lat="51.228775369632" lon="4.461285888646">
        <ele>6</ele>
        <time>2019-05-12T23:16:00Z</time>
      </trkpt>
      <trkpt lat="51.228745949163" lon="4.461291588338">
        <ele>7.2</ele>
        <time>2019-05-12T23:16:02Z</time>
      </trkpt>
      <trkpt lat="51.228419138882" lon="4.461136439369">
        <ele>11</ele>
        <time>2019-05-12T23:17:30Z</time>
      </trkpt>
      <trkpt lat="51.22839918996" lon="4.461036275664">
        <ele>20.8</ele>
        <time>2019-05-12T23:17:48Z</time>
      </trkpt>
      <trkpt lat="51.228135411567" lon="4.460655653585">
        <ele>15.4</ele>
        <time>2019-05-12T23:18:27Z</time>
      </trkpt>
      <trkpt lat="51.227781779206" lon="4.460733605255">
        <ele>5.2</ele>
        <time>2019-05-12T23:19:01Z</time>
      </trkpt>
      <trkpt lat="51.227761662646" lon="4.460739221128">
        <ele>5</ele>
        <time>2019-05-12T23:19:03Z</time>
      </trkpt>
      <trkpt lat="51.227555635544" lon="4.460876768107">
        <ele>4.4</ele>
        <time>2019-05-12T23:19:24Z</time>
      </trkpt>
      <trkpt lat="51.227496207873" lon="4.46105421293">
        <ele>2.2</ele>
        <time>2019-05-12T23:19:38Z</time>
      </trkpt>
      <trkpt lat="51.227380872929" lon="4.461298629134">
        <ele>3.8</ele>
        <time>2019-05-12T23:19:56Z</time>
      </trkpt>
      <trkpt lat="51.22735229065" lon="4.461305502292">
        <ele>4</ele>
        <time>2019-05-12T23:19:58Z</time>
      </trkpt>
      <trkpt lat="51.22730451382" lon="4.461309274147">
        <ele>3.2</ele>
        <time>2019-05-12T23:20:12Z</time>
      </trkpt>
      <trkpt lat="51.227351955374" lon="4.461115819895">
        <ele>0.2</ele>
        <time>2019-05-12T23:20:42Z</time>
      </trkpt>
      <trkpt lat="51.227405180439" lon="4.460928065335">
        <ele>5</ele>
        <time>2019-05-12T23:20:59Z</time>
      </trkpt>
      <trkpt lat="51.227477097141" lon="4.460807365975">
        <ele>7</ele>
        <time>2019-05-12T23:21:12Z</time>
      </trkpt>
      <trkpt lat="51.227526215075" lon="4.460764366828">
        <ele>8.2</ele>
        <time>2019-05-12T23:21:18Z</time>
      </trkpt>
      <trkpt lat="51.227962995884" lon="4.460540989193">
        <ele>13.4</ele>
        <time>2019-05-12T23:21:59Z</time>
      </trkpt>
      <trkpt lat="51.228038013889" lon="4.460511568724">
        <ele>15</ele>
        <time>2019-05-12T23:22:10Z</time>
      </trkpt>
      <trkpt lat="51.22821897911" lon="4.460437137452">
        <ele>21</ele>
        <time>2019-05-12T23:22:24Z</time>
      </trkpt>
      <trkpt lat="51.228355855537" lon="4.459784271261">
        <ele>1.4</ele>
        <time>2019-05-12T23:22:55Z</time>
      </trkpt>
      <trkpt lat="51.228522906804" lon="4.459103325705">
        <ele>1</ele>
        <time>2019-05-12T23:23:39Z</time>
      </trkpt>
      <trkpt lat="51.228548555418" lon="4.458401509218">
        <ele>8.6</ele>
        <time>2019-05-12T23:24:19Z</time>
      </trkpt>
      <trkpt lat="51.228478398915" lon="4.458295059088">
        <ele>3.6</ele>
        <time>2019-05-12T23:24:33Z</time>
      </trkpt>
      <trkpt lat="51.228765898085" lon="4.458113339496">
        <ele>0</ele>
        <time>2019-05-12T23:25:06Z</time>
      </trkpt>
      <trkpt lat="51.22921391064" lon="4.458035304007">
        <ele>2.4</ele>
        <time>2019-05-12T23:25:57Z</time>
      </trkpt>
      <trkpt lat="51.229653792752" lon="4.457874371527">
        <ele>3.2</ele>
        <time>2019-05-12T23:26:41Z</time>
      </trkpt>
      <trkpt lat="51.229810282825" lon="4.457909910783">
        <ele>3.2</ele>
        <time>2019-05-12T23:27:19Z</time>
      </trkpt>
      <trkpt lat="51.229751525706" lon="4.457917370674">
        <ele>3.4</ele>
        <time>2019-05-12T23:27:27Z</time>
      </trkpt>
      <trkpt lat="51.229692600949" lon="4.457909659326">
        <ele>2.6</ele>
        <time>2019-05-12T23:27:34Z</time>
      </trkpt>
    </trkseg>
  </trk>
</gpx>